createdAt,value
2018-03-28T00:00:39.205Z,93.10
2018-03-28T00:03:06.198Z,93.10
2018-03-28T00:05:33.298Z,93.10
2018-03-28T00:08:00.298Z,93.10
2018-03-28T00:10:27.338Z,93.20
2018-03-28T00:12:54.361Z,93.10
2018-03-28T00:15:21.383Z,93.00
2018-03-28T00:17:48.378Z,92.90
2018-03-28T00:20:15.398Z,92.70
2018-03-28T00:22:42.418Z,92.60
2018-03-28T00:25:09.399Z,92.60
2018-03-28T00:27:36.418Z,92.40
2018-03-28T00:30:03.499Z,92.20
2018-03-28T00:32:30.481Z,92.30
2018-03-28T00:34:57.520Z,92.30
2018-03-28T00:37:24.540Z,92.30
2018-03-28T00:39:51.538Z,92.40
2018-03-28T00:42:18.589Z,92.40
2018-03-28T00:44:45.518Z,92.30
2018-03-28T00:47:12.479Z,92.30
2018-03-28T00:49:39.459Z,92.20
2018-03-28T00:52:06.379Z,92.10
2018-03-28T00:54:33.404Z,92.00
2018-03-28T00:57:00.439Z,92.00
2018-03-28T00:59:27.478Z,92.00
2018-03-28T01:01:54.479Z,92.00
2018-03-28T01:04:21.513Z,92.00
2018-03-28T01:06:49.239Z,92.10
2018-03-28T01:09:16.958Z,92.10
2018-03-28T01:11:44.044Z,92.10
2018-03-28T01:14:11.764Z,92.10
2018-03-28T01:16:38.759Z,92.10
2018-03-28T01:19:05.839Z,92.10
2018-03-28T01:21:32.859Z,92.10
2018-03-28T01:23:59.860Z,92.10
2018-03-28T01:26:26.879Z,92.10
2018-03-28T01:28:53.879Z,92.10
2018-03-28T01:31:20.899Z,92.10
2018-03-28T01:33:47.959Z,92.10
2018-03-28T01:36:22.758Z,92.10
2018-03-28T01:38:50.590Z,92.10
2018-03-28T01:41:28.998Z,92.10
2018-03-28T01:43:56.039Z,92.10
2018-03-28T01:46:23.019Z,92.00
2018-03-28T01:48:50.020Z,92.00
2018-03-28T01:51:17.038Z,92.00
2018-03-28T01:53:43.998Z,92.00
2018-03-28T01:56:10.958Z,92.00
2018-03-28T01:58:37.978Z,92.00
2018-03-28T02:01:04.998Z,92.00
2018-03-28T02:03:31.959Z,92.00
2018-03-28T02:05:58.938Z,91.90
2018-03-28T02:08:25.899Z,91.90
2018-03-28T02:10:52.899Z,91.90
2018-03-28T02:13:19.917Z,92.00
2018-03-28T02:15:46.918Z,91.90
2018-03-28T02:18:13.940Z,91.80
2018-03-28T02:20:41.059Z,91.90
2018-03-28T02:23:08.038Z,91.80
2018-03-28T02:25:35.017Z,91.80
2018-03-28T02:28:02.039Z,91.80
2018-03-28T02:30:29.039Z,91.80
2018-03-28T02:32:56.058Z,91.80
2018-03-28T02:35:23.118Z,91.80
2018-03-28T02:37:50.199Z,91.90
2018-03-28T02:40:17.239Z,91.80
2018-03-28T02:42:44.339Z,91.80
2018-03-28T02:45:11.420Z,91.80
2018-03-28T02:47:38.398Z,91.80
2018-03-28T02:50:05.479Z,91.80
2018-03-28T02:52:32.459Z,91.80
2018-03-28T02:54:59.465Z,91.80
2018-03-28T02:57:26.529Z,91.90
2018-03-28T02:59:53.566Z,91.90
2018-03-28T03:02:20.614Z,91.80
2018-03-28T03:04:47.657Z,91.70
2018-03-28T03:07:14.618Z,91.60
2018-03-28T03:09:41.600Z,91.60
2018-03-28T03:12:08.618Z,91.70
2018-03-28T03:14:35.578Z,91.80
2018-03-28T03:17:02.539Z,91.70
2018-03-28T03:19:29.540Z,91.70
2018-03-28T03:21:56.458Z,91.70
2018-03-28T03:24:23.958Z,91.80
2018-03-28T03:26:51.038Z,91.90
2018-03-28T03:29:18.058Z,92.10
2018-03-28T03:31:45.059Z,92.10
2018-03-28T03:34:12.098Z,92.10
2018-03-28T03:36:39.158Z,92.20
2018-03-28T03:39:06.178Z,92.10
2018-03-28T03:41:33.222Z,92.00
2018-03-28T03:44:01.146Z,92.00
2018-03-28T03:46:28.158Z,92.00
2018-03-28T03:48:55.238Z,92.00
2018-03-28T03:51:27.318Z,92.00
2018-03-28T03:53:54.318Z,92.00
2018-03-28T03:56:21.399Z,92.00
2018-03-28T03:58:54.179Z,92.00
2018-03-28T04:01:21.218Z,92.00
2018-03-28T04:03:48.198Z,92.00
2018-03-28T04:06:15.918Z,92.00
2018-03-28T04:08:42.938Z,91.90
2018-03-28T04:11:09.901Z,91.90
2018-03-28T04:13:36.878Z,92.00
2018-03-28T04:16:03.918Z,91.90
2018-03-28T04:18:30.879Z,91.90
2018-03-28T04:20:58.598Z,91.90
2018-03-28T04:23:25.599Z,91.90
2018-03-28T04:25:52.558Z,91.90
2018-03-28T04:28:19.518Z,91.90
2018-03-28T04:30:46.539Z,91.90
2018-03-28T04:33:14.220Z,91.90
2018-03-28T04:35:41.118Z,91.90
2018-03-28T04:38:08.199Z,91.70
2018-03-28T04:40:35.238Z,91.60
2018-03-28T04:43:02.258Z,91.60
2018-03-28T04:45:29.338Z,91.60
2018-03-28T04:47:56.318Z,91.50
2018-03-28T04:50:23.338Z,91.40
2018-03-28T04:52:50.419Z,91.40
2018-03-28T04:55:17.398Z,91.50
2018-03-28T04:57:45.198Z,91.00
2018-03-28T05:00:12.278Z,91.00
2018-03-28T05:02:39.278Z,91.00
2018-03-28T05:05:06.258Z,91.00
2018-03-28T05:07:33.298Z,91.40
2018-03-28T05:10:00.298Z,91.30
2018-03-28T05:12:32.278Z,91.30
2018-03-28T05:14:59.298Z,91.30
2018-03-28T05:17:26.297Z,91.30
2018-03-28T05:19:53.278Z,91.40
2018-03-28T05:22:20.338Z,91.50
2018-03-28T05:24:48.118Z,91.60
2018-03-28T05:27:15.838Z,91.50
2018-03-28T05:29:42.918Z,91.40
2018-03-28T05:32:09.877Z,91.70
2018-03-28T05:34:37.638Z,91.30
2018-03-28T05:37:04.664Z,91.20
2018-03-28T05:39:31.597Z,91.20
2018-03-28T05:41:58.537Z,91.10
2018-03-28T05:44:25.572Z,91.10
2018-03-28T05:46:52.565Z,91.00
2018-03-28T05:49:20.320Z,91.00
2018-03-28T05:51:47.418Z,90.90
2018-03-28T05:54:14.418Z,91.00
2018-03-28T05:56:41.418Z,91.00
2018-03-28T05:59:08.445Z,90.50
2018-03-28T06:01:35.458Z,90.50
2018-03-28T06:04:02.444Z,90.50
2018-03-28T06:06:29.478Z,90.40
2018-03-28T06:08:56.498Z,90.30
2018-03-28T06:11:24.300Z,90.30
2018-03-28T06:13:51.364Z,90.30
2018-03-28T06:16:18.399Z,90.30
2018-03-28T06:18:45.418Z,90.20
2018-03-28T06:21:12.438Z,90.00
2018-03-28T06:23:39.437Z,90.10
2018-03-28T06:26:06.423Z,90.10
2018-03-28T06:28:33.477Z,90.00
2018-03-28T06:31:00.482Z,90.10
2018-03-28T06:33:27.478Z,89.60
2018-03-28T06:35:54.502Z,89.40
2018-03-28T06:38:21.518Z,89.40
2018-03-28T06:40:48.498Z,88.50
2018-03-28T06:43:15.538Z,88.00
2018-03-28T06:45:42.518Z,88.60
2018-03-28T06:48:09.481Z,88.30
2018-03-28T06:50:36.438Z,87.90
2018-03-28T06:53:03.458Z,88.00
2018-03-28T06:55:30.478Z,87.50
2018-03-28T06:57:58.258Z,86.40
2018-03-28T07:00:25.258Z,86.30
2018-03-28T07:02:52.238Z,85.30
2018-03-28T07:05:20.019Z,85.00
2018-03-28T07:07:46.997Z,84.90
2018-03-28T07:10:14.038Z,85.20
2018-03-28T07:12:41.138Z,85.70
2018-03-28T07:15:08.898Z,86.50
2018-03-28T07:17:36.661Z,86.20
2018-03-28T07:20:04.478Z,87.30
2018-03-28T07:22:31.478Z,86.50
2018-03-28T07:24:58.499Z,86.80
2018-03-28T07:27:25.579Z,87.10
2018-03-28T07:29:53.320Z,87.10
2018-03-28T07:32:20.298Z,87.00
2018-03-28T07:34:47.318Z,86.80
2018-03-28T07:37:14.318Z,86.20
2018-03-28T07:39:41.298Z,87.60
2018-03-28T07:42:08.338Z,86.60
2018-03-28T07:44:35.318Z,86.40
2018-03-28T07:47:03.178Z,85.50
2018-03-28T07:49:30.178Z,85.40
2018-03-28T07:51:58.138Z,86.10
2018-03-28T07:54:25.099Z,86.40
2018-03-28T07:56:52.238Z,86.20
2018-03-28T07:59:19.238Z,86.90
2018-03-28T08:01:46.238Z,86.90
2018-03-28T08:04:13.318Z,86.30
2018-03-28T08:06:40.318Z,86.30
2018-03-28T08:09:07.358Z,86.00
2018-03-28T08:11:34.398Z,86.20
2018-03-28T08:14:01.398Z,85.30
2018-03-28T08:16:29.218Z,85.70
2018-03-28T08:18:56.758Z,85.70
2018-03-28T08:21:23.758Z,85.90
2018-03-28T08:23:50.778Z,86.50
2018-03-28T08:26:18.638Z,86.40
2018-03-28T08:28:45.640Z,86.40
2018-03-28T08:31:12.638Z,86.70
2018-03-28T08:33:39.659Z,86.90
2018-03-28T08:36:06.707Z,86.90
2018-03-28T08:38:33.718Z,87.20
2018-03-28T08:41:00.762Z,85.60
2018-03-28T08:43:28.500Z,86.30
2018-03-28T08:45:55.498Z,86.20
2018-03-28T08:48:22.559Z,85.90
2018-03-28T08:50:49.519Z,86.30
2018-03-28T08:53:16.459Z,85.70
2018-03-28T08:55:44.239Z,86.80
2018-03-28T08:58:11.628Z,86.70
2018-03-28T09:00:38.719Z,87.10
2018-03-28T09:03:05.778Z,87.50
2018-03-28T09:05:32.819Z,87.90
2018-03-28T09:08:00.579Z,87.70
2018-03-28T09:10:28.338Z,87.50
2018-03-28T09:12:55.338Z,87.50
2018-03-28T09:15:22.458Z,87.90
2018-03-28T09:17:49.579Z,88.00
2018-03-28T09:20:16.619Z,88.10
2018-03-28T09:22:43.618Z,88.10
2018-03-28T09:25:10.719Z,87.70
2018-03-28T09:27:37.778Z,87.60
2018-03-28T09:30:04.766Z,87.60
2018-03-28T09:32:32.545Z,87.90
2018-03-28T09:34:59.527Z,87.90
2018-03-28T09:37:26.524Z,88.20
2018-03-28T09:39:54.318Z,88.20
2018-03-28T09:42:21.278Z,88.20
2018-03-28T09:44:48.278Z,88.40
2018-03-28T09:47:16.039Z,88.10
2018-03-28T09:49:43.739Z,87.40
2018-03-28T09:52:10.679Z,87.20
2018-03-28T09:54:37.758Z,87.30
2018-03-28T09:57:04.858Z,87.90
2018-03-28T09:59:31.918Z,89.20
2018-03-28T10:01:59.018Z,87.70
2018-03-28T10:04:26.998Z,86.90
2018-03-28T10:06:54.742Z,89.00
2018-03-28T10:09:21.818Z,88.30
2018-03-28T10:11:48.878Z,88.70
2018-03-28T10:14:15.898Z,89.00
2018-03-28T10:16:43.059Z,89.20
2018-03-28T10:19:10.839Z,89.90
2018-03-28T10:21:37.946Z,90.10
2018-03-28T10:24:05.049Z,90.00
2018-03-28T10:26:32.024Z,90.20
2018-03-28T10:29:04.084Z,89.80
2018-03-28T10:31:31.184Z,88.40
2018-03-28T10:33:58.984Z,88.90
2018-03-28T10:36:26.044Z,88.90
2018-03-28T10:38:53.105Z,87.90
2018-03-28T10:41:20.165Z,87.60
2018-03-28T10:43:47.124Z,86.60
2018-03-28T10:46:14.164Z,87.30
2018-03-28T10:48:41.224Z,87.40
2018-03-28T10:51:08.984Z,87.30
2018-03-28T10:53:36.784Z,87.00
2018-03-28T10:56:03.845Z,87.00
2018-03-28T10:58:30.865Z,87.70
2018-03-28T11:00:57.904Z,87.40
2018-03-28T11:03:24.950Z,87.10
2018-03-28T11:05:52.310Z,87.50
2018-03-28T11:08:19.465Z,87.40
2018-03-28T11:10:46.484Z,87.20
2018-03-28T11:13:14.264Z,86.30
2018-03-28T11:15:41.304Z,86.20
2018-03-28T11:18:08.304Z,86.30
2018-03-28T11:20:35.264Z,86.60
2018-03-28T11:23:02.344Z,85.80
2018-03-28T11:25:29.385Z,86.50
2018-03-28T11:27:57.124Z,86.70
2018-03-28T11:30:24.244Z,86.60
2018-03-28T11:32:51.284Z,86.60
2018-03-28T11:35:18.303Z,87.60
2018-03-28T11:37:45.385Z,87.10
2018-03-28T11:40:12.464Z,87.10
2018-03-28T11:42:39.543Z,86.00
2018-03-28T11:45:06.624Z,86.00
2018-03-28T11:47:33.686Z,86.50
2018-03-28T11:50:00.667Z,85.50
2018-03-28T11:52:27.727Z,85.90
2018-03-28T11:54:54.744Z,85.60
2018-03-28T11:57:21.763Z,84.30
2018-03-28T11:59:48.789Z,83.90
2018-03-28T12:02:18.723Z,83.40
2018-03-28T12:04:45.724Z,82.80
2018-03-28T12:07:12.784Z,83.20
2018-03-28T12:09:39.764Z,82.60
2018-03-28T12:12:06.823Z,84.40
2018-03-28T12:14:33.944Z,83.00
2018-03-28T12:17:00.963Z,82.80
2018-03-28T12:19:27.944Z,83.10
2018-03-28T12:21:54.984Z,83.00
2018-03-28T12:24:21.964Z,84.90
2018-03-28T12:26:49.122Z,84.60
2018-03-28T12:29:16.184Z,82.20
2018-03-28T12:31:43.924Z,82.00
2018-03-28T12:34:11.144Z,82.00
2018-03-28T12:36:38.206Z,83.70
2018-03-28T12:39:06.169Z,82.80
2018-03-28T12:41:33.204Z,82.60
2018-03-28T12:44:00.264Z,83.00
2018-03-28T12:46:27.264Z,84.10
2018-03-28T12:48:54.244Z,83.50
2018-03-28T12:51:21.624Z,84.50
2018-03-28T12:53:48.604Z,83.10
2018-03-28T12:56:16.284Z,83.00
2018-03-28T12:58:43.305Z,83.00
2018-03-28T13:01:10.324Z,82.60
2018-03-28T13:03:37.344Z,82.50
2018-03-28T13:06:04.404Z,80.50
2018-03-28T13:08:31.464Z,80.80
2018-03-28T13:10:58.424Z,80.40
2018-03-28T13:13:25.564Z,81.90
2018-03-28T13:15:52.607Z,81.80
2018-03-28T13:18:19.664Z,82.00
2018-03-28T13:20:46.744Z,81.40
2018-03-28T13:23:13.764Z,81.00
2018-03-28T13:25:40.830Z,80.20
2018-03-28T13:28:08.663Z,79.90
2018-03-28T13:30:35.940Z,79.80
2018-03-28T13:33:02.980Z,78.40
2018-03-28T13:35:30.040Z,78.60
2018-03-28T13:37:57.781Z,80.40
2018-03-28T13:40:24.800Z,80.30
2018-03-28T13:42:51.860Z,81.40
2018-03-28T13:45:18.860Z,80.30
2018-03-28T13:47:45.862Z,81.20
2018-03-28T13:50:12.880Z,82.60
2018-03-28T13:52:39.880Z,83.30
2018-03-28T13:55:06.879Z,85.20
2018-03-28T13:57:34.040Z,86.00
2018-03-28T14:00:00.989Z,87.10
2018-03-28T14:02:28.120Z,85.50
2018-03-28T14:04:55.122Z,86.10
2018-03-28T14:07:22.940Z,85.80
2018-03-28T14:09:50.083Z,85.70
2018-03-28T14:12:17.068Z,85.80
2018-03-28T14:14:44.127Z,85.40
2018-03-28T14:17:11.968Z,85.50
2018-03-28T14:19:39.108Z,85.50
2018-03-28T14:22:06.109Z,85.30
2018-03-28T14:24:33.490Z,84.00
2018-03-28T14:27:00.488Z,83.60
2018-03-28T14:29:28.227Z,84.30
2018-03-28T14:31:55.270Z,84.30
2018-03-28T14:34:23.041Z,83.80
2018-03-28T14:36:49.866Z,83.80
2018-03-28T14:39:16.906Z,83.80
2018-03-28T14:41:43.721Z,83.90
2018-03-28T14:44:11.029Z,84.20
2018-03-28T14:46:38.015Z,84.60
2018-03-28T14:49:04.860Z,84.50
2018-03-28T14:51:31.780Z,84.50
2018-03-28T14:53:59.963Z,85.10
2018-03-28T14:56:27.082Z,84.60
2018-03-28T14:58:54.128Z,85.10
2018-03-28T15:01:21.160Z,84.60
2018-03-28T15:03:49.569Z,84.10
2018-03-28T15:06:16.669Z,84.70
2018-03-28T15:08:43.569Z,85.20
2018-03-28T15:11:10.652Z,85.30
2018-03-28T15:13:37.508Z,85.50
2018-03-28T15:16:04.647Z,85.40
2018-03-28T15:18:31.637Z,86.00
2018-03-28T15:20:59.442Z,86.80
2018-03-28T15:23:26.462Z,86.80
2018-03-28T15:25:54.242Z,87.40
2018-03-28T15:28:21.245Z,87.40
2018-03-28T15:30:48.242Z,87.10
2018-03-28T15:33:15.149Z,87.10
2018-03-28T15:35:42.142Z,87.30
2018-03-28T15:38:09.122Z,87.70
2018-03-28T15:40:36.164Z,87.80
2018-03-28T15:43:03.079Z,87.80
2018-03-28T15:45:30.212Z,88.20
2018-03-28T15:47:57.166Z,89.10
2018-03-28T15:50:24.161Z,89.70
2018-03-28T15:52:52.058Z,89.70
2018-03-28T15:55:19.098Z,89.50
2018-03-28T15:57:46.676Z,89.00
2018-03-28T16:00:13.644Z,88.90
2018-03-28T16:02:41.948Z,88.00
2018-03-28T16:05:09.123Z,88.30
2018-03-28T16:07:36.779Z,87.70
2018-03-28T16:10:04.498Z,87.80
2018-03-28T16:12:31.544Z,87.80
2018-03-28T16:14:59.319Z,88.10
2018-03-28T16:17:26.406Z,88.10
2018-03-28T16:19:53.439Z,88.10
2018-03-28T16:22:21.367Z,88.30
2018-03-28T16:24:48.562Z,88.50
2018-03-28T16:27:16.443Z,88.60
2018-03-28T16:29:43.314Z,88.50
2018-03-28T16:32:10.214Z,88.50
2018-03-28T16:34:40.039Z,88.90
2018-03-28T16:37:07.699Z,88.70
2018-03-28T16:39:35.518Z,88.90
2018-03-28T16:42:02.454Z,88.90
2018-03-28T16:44:29.507Z,89.30
2018-03-28T16:46:56.542Z,89.70
2018-03-28T16:49:23.622Z,90.00
2018-03-28T16:51:50.570Z,90.00
2018-03-28T16:54:17.464Z,90.10
2018-03-28T16:56:44.501Z,90.10
2018-03-28T16:59:11.519Z,90.20
2018-03-28T17:01:38.569Z,90.20
2018-03-28T17:04:06.236Z,90.40
2018-03-28T17:06:33.241Z,90.50
2018-03-28T17:09:00.162Z,90.50
2018-03-28T17:11:27.226Z,90.70
2018-03-28T17:13:54.241Z,90.70
2018-03-28T17:16:21.320Z,90.70
2018-03-28T17:18:48.328Z,90.60
2018-03-28T17:21:15.237Z,90.50
2018-03-28T17:23:43.260Z,90.60
2018-03-28T17:26:11.120Z,90.70
2018-03-28T17:28:38.141Z,90.70
2018-03-28T17:31:05.984Z,90.80
2018-03-28T17:33:33.728Z,91.00
2018-03-28T17:36:00.829Z,91.00
2018-03-28T17:38:27.951Z,91.10
2018-03-28T17:40:55.790Z,91.10
2018-03-28T17:43:22.829Z,91.10
2018-03-28T17:45:49.889Z,91.10
2018-03-28T17:48:17.029Z,91.10
2018-03-28T17:50:44.095Z,91.20
2018-03-28T17:53:11.069Z,91.20
2018-03-28T17:55:38.152Z,91.30
2018-03-28T17:58:05.269Z,91.50
2018-03-28T18:00:32.509Z,91.50
2018-03-28T18:02:59.789Z,91.50
2018-03-28T18:05:27.196Z,91.50
2018-03-28T18:07:54.269Z,91.50
2018-03-28T18:10:22.109Z,91.60
2018-03-28T18:12:49.310Z,91.60
2018-03-28T18:15:16.349Z,91.50
2018-03-28T18:17:43.391Z,91.60
2018-03-28T18:20:10.429Z,91.60
2018-03-28T18:22:37.490Z,91.60
2018-03-28T18:25:04.589Z,91.60
2018-03-28T18:27:31.667Z,91.60
2018-03-28T18:29:58.770Z,91.60
2018-03-28T18:32:25.775Z,91.70
2018-03-28T18:34:52.911Z,91.70
2018-03-28T18:37:19.994Z,91.70
2018-03-28T18:39:47.109Z,91.90
2018-03-28T18:42:14.210Z,92.00
2018-03-28T18:44:42.129Z,92.00
2018-03-28T18:47:09.269Z,92.00
2018-03-28T18:49:36.508Z,92.10
2018-03-28T18:52:03.570Z,92.20
2018-03-28T18:54:30.669Z,92.30
2018-03-28T18:57:02.829Z,92.40
2018-03-28T18:59:29.909Z,92.50
2018-03-28T19:01:57.069Z,92.60
2018-03-28T19:04:24.189Z,92.70
2018-03-28T19:06:51.389Z,92.70
2018-03-28T19:09:18.430Z,92.90
2018-03-28T19:11:45.809Z,93.10
2018-03-28T19:14:12.869Z,93.20
2018-03-28T19:16:39.889Z,93.20
2018-03-28T19:19:06.929Z,93.20
2018-03-28T19:21:34.815Z,93.30
2018-03-28T19:24:01.894Z,93.30
2018-03-28T19:26:29.055Z,93.30
2018-03-28T19:28:56.130Z,93.30
2018-03-28T19:31:23.935Z,93.40
2018-03-28T19:33:51.044Z,93.30
2018-03-28T19:36:18.830Z,93.30
2018-03-28T19:38:45.951Z,93.30
2018-03-28T19:41:13.789Z,93.20
2018-03-28T19:43:40.930Z,93.20
2018-03-28T19:46:08.056Z,93.20
2018-03-28T19:48:35.171Z,93.20
2018-03-28T19:51:02.950Z,93.30
2018-03-28T19:53:29.989Z,93.30
2018-03-28T19:55:57.009Z,93.30
2018-03-28T19:58:24.055Z,93.40
2018-03-28T20:00:51.135Z,93.40
2018-03-28T20:03:18.213Z,93.40
2018-03-28T20:05:45.229Z,93.40
2018-03-28T20:08:12.256Z,93.50
2018-03-28T20:10:39.329Z,93.50
2018-03-28T20:13:06.429Z,93.50
2018-03-28T20:15:33.589Z,93.60
2018-03-28T20:18:00.669Z,93.60
2018-03-28T20:20:27.696Z,93.60
2018-03-28T20:23:00.629Z,93.70
2018-03-28T20:25:32.750Z,93.70
2018-03-28T20:28:05.010Z,93.70
2018-03-28T20:30:32.189Z,93.70
2018-03-28T20:32:59.229Z,93.70
2018-03-28T20:35:26.289Z,93.70
2018-03-28T20:37:53.350Z,93.70
2018-03-28T20:40:20.390Z,93.80
2018-03-28T20:42:47.549Z,93.80
2018-03-28T20:45:14.588Z,93.80
2018-03-28T20:47:42.369Z,93.80
2018-03-28T20:50:10.189Z,93.80
2018-03-28T20:52:37.269Z,93.80
2018-03-28T20:55:05.009Z,93.80
2018-03-28T20:57:32.289Z,93.80
2018-03-28T20:59:59.409Z,93.70
2018-03-28T21:02:26.529Z,94.00
2018-03-28T21:04:53.670Z,93.80
2018-03-28T21:07:20.758Z,93.80
2018-03-28T21:09:47.869Z,93.80
2018-03-28T21:12:15.089Z,93.80
2018-03-28T21:14:42.912Z,93.80
2018-03-28T21:17:09.989Z,93.70
2018-03-28T21:19:37.069Z,93.80
2018-03-28T21:22:04.110Z,93.80
2018-03-28T21:24:31.150Z,93.80
2018-03-28T21:26:58.990Z,93.90
2018-03-28T21:29:26.030Z,93.80
2018-03-28T21:31:53.073Z,94.10
2018-03-28T21:34:20.131Z,93.80
2018-03-28T21:36:47.170Z,93.90
2018-03-28T21:39:14.209Z,93.90
2018-03-28T21:41:42.829Z,93.90
2018-03-28T21:44:10.609Z,94.10
2018-03-28T21:46:37.789Z,94.10
2018-03-28T21:49:05.685Z,94.50
2018-03-28T21:51:32.790Z,94.20
2018-03-28T21:54:00.911Z,94.30
2018-03-28T21:56:28.749Z,94.50
2018-03-28T21:58:55.830Z,94.50
2018-03-28T22:01:23.709Z,94.70
2018-03-28T22:03:50.789Z,94.50
2018-03-28T22:06:17.870Z,94.50
2018-03-28T22:08:45.010Z,94.60
2018-03-28T22:11:12.110Z,94.70
2018-03-28T22:13:39.229Z,94.60
2018-03-28T22:16:06.709Z,94.70
2018-03-28T22:18:33.749Z,94.70
2018-03-28T22:21:00.822Z,94.90
2018-03-28T22:23:27.829Z,94.70
2018-03-28T22:25:54.870Z,94.70
2018-03-28T22:28:21.890Z,94.70
2018-03-28T22:30:48.929Z,94.70
2018-03-28T22:33:16.071Z,94.80
2018-03-28T22:35:43.149Z,94.80
2018-03-28T22:38:10.209Z,94.80
2018-03-28T22:40:37.375Z,94.70
2018-03-28T22:43:05.215Z,94.90
2018-03-28T22:45:32.270Z,94.80
2018-03-28T22:47:59.431Z,94.80
2018-03-28T22:50:27.272Z,94.90
2018-03-28T22:52:54.430Z,94.80
2018-03-28T22:55:21.469Z,95.00
2018-03-28T22:57:48.509Z,94.90
2018-03-28T23:00:15.870Z,95.00
2018-03-28T23:02:42.920Z,95.00
2018-03-28T23:05:09.952Z,95.00
2018-03-28T23:07:37.010Z,95.00
2018-03-28T23:10:04.049Z,95.00
2018-03-28T23:12:31.150Z,95.10
2018-03-28T23:14:58.190Z,95.10
2018-03-28T23:17:25.156Z,95.10
2018-03-28T23:19:52.229Z,95.20
2018-03-28T23:22:39.330Z,95.20
2018-03-28T23:25:06.495Z,95.20
2018-03-28T23:27:33.615Z,95.30
2018-03-28T23:30:00.710Z,95.30
2018-03-28T23:32:27.812Z,95.20
2018-03-28T23:34:54.964Z,95.20
2018-03-28T23:37:22.030Z,95.20
2018-03-28T23:39:49.089Z,95.20
2018-03-28T23:42:16.223Z,95.20
2018-03-28T23:44:43.249Z,95.20
2018-03-28T23:47:10.349Z,95.20
2018-03-28T23:49:37.389Z,95.20
2018-03-28T23:52:04.429Z,95.30
2018-03-28T23:54:31.409Z,95.60
2018-03-28T23:56:58.509Z,95.40
2018-03-28T23:59:25.594Z,95.50
